createdAt,value
2023-01-26T00:00:43.000Z,99
2023-01-26T00:02:07.000Z,99
2023-01-26T00:04:11.000Z,99
2023-01-26T00:05:35.000Z,98
2023-01-26T00:07:39.000Z,98
2023-01-26T00:10:28.000Z,99
2023-01-26T00:11:52.000Z,100
2023-01-26T00:13:56.000Z,100
2023-01-26T00:15:20.000Z,100
2023-01-26T00:17:24.000Z,100
2023-01-26T00:18:48.000Z,100
2023-01-26T00:20:51.000Z,99
2023-01-26T00:22:16.000Z,99
2023-01-26T00:24:19.000Z,98
2023-01-26T00:25:44.000Z,98
2023-01-26T00:27:47.000Z,99
2023-01-26T00:29:12.000Z,99
2023-01-26T00:31:15.000Z,99
2023-01-26T00:32:40.000Z,99
2023-01-26T00:34:44.000Z,99
2023-01-26T00:36:08.000Z,99
2023-01-26T00:38:12.000Z,99
2023-01-26T00:39:36.000Z,99
2023-01-26T00:41:39.000Z,99
2023-01-26T00:43:04.000Z,99
2023-01-26T00:45:07.000Z,98
2023-01-26T00:47:57.000Z,98
2023-01-26T00:49:21.000Z,98
2023-01-26T00:51:25.000Z,98
2023-01-26T00:52:49.000Z,98
2023-01-26T00:54:53.000Z,98
2023-01-26T00:56:17.000Z,98
2023-01-26T00:58:21.000Z,98
2023-01-26T00:59:45.000Z,98
2023-01-26T01:01:49.000Z,99
2023-01-26T01:03:13.000Z,99
2023-01-26T01:05:16.000Z,99
2023-01-26T01:06:41.000Z,99
2023-01-26T01:08:44.000Z,99
2023-01-26T01:10:09.000Z,99
2023-01-26T01:12:13.000Z,99
2023-01-26T01:13:37.000Z,99
2023-01-26T01:15:41.000Z,100
2023-01-26T01:17:05.000Z,100
2023-01-26T01:19:09.000Z,100
2023-01-26T01:20:33.000Z,100
2023-01-26T01:22:37.000Z,100
2023-01-26T01:25:26.000Z,100
2023-01-26T01:26:51.000Z,100
2023-01-26T01:28:54.000Z,100
2023-01-26T01:30:19.000Z,100
2023-01-26T01:32:22.000Z,100
2023-01-26T01:33:46.000Z,100
2023-01-26T01:35:50.000Z,100
2023-01-26T01:37:14.000Z,100
2023-01-26T01:39:18.000Z,100
2023-01-26T01:40:42.000Z,100
2023-01-26T01:42:46.000Z,100
2023-01-26T01:44:10.000Z,100
2023-01-26T01:46:13.000Z,100
2023-01-26T01:47:38.000Z,100
2023-01-26T01:49:42.000Z,100
2023-01-26T01:51:06.000Z,100
2023-01-26T01:53:09.000Z,100
2023-01-26T01:54:34.000Z,100
2023-01-26T01:56:37.000Z,100
2023-01-26T01:58:02.000Z,100
2023-01-26T02:00:05.000Z,100
2023-01-26T02:02:54.000Z,100
2023-01-26T02:04:19.000Z,100
2023-01-26T02:06:22.000Z,100
2023-01-26T02:07:47.000Z,100
2023-01-26T02:09:50.000Z,100
2023-01-26T02:11:15.000Z,100
2023-01-26T02:13:18.000Z,100
2023-01-26T02:14:43.000Z,100
2023-01-26T02:16:46.000Z,100
2023-01-26T02:18:10.000Z,100
2023-01-26T02:20:14.000Z,100
2023-01-26T02:21:38.000Z,100
2023-01-26T02:23:42.000Z,100
2023-01-26T02:25:06.000Z,100
2023-01-26T02:27:10.000Z,100
2023-01-26T02:28:34.000Z,100
2023-01-26T02:30:38.000Z,100
2023-01-26T02:32:02.000Z,100
2023-01-26T02:34:06.000Z,100
2023-01-26T02:35:30.000Z,100
2023-01-26T02:37:34.000Z,100
2023-01-26T02:40:23.000Z,100
2023-01-26T02:41:47.000Z,100
2023-01-26T02:43:51.000Z,100
2023-01-26T02:45:15.000Z,100
2023-01-26T02:47:19.000Z,100
2023-01-26T02:48:43.000Z,100
2023-01-26T02:50:47.000Z,100
2023-01-26T02:52:11.000Z,100
2023-01-26T02:54:15.000Z,100
2023-01-26T02:55:39.000Z,100
2023-01-26T02:57:43.000Z,100
2023-01-26T02:59:07.000Z,100
2023-01-26T03:01:10.000Z,100
2023-01-26T03:02:35.000Z,100
2023-01-26T03:04:38.000Z,100
2023-01-26T03:06:03.000Z,100
2023-01-26T03:08:06.000Z,100
2023-01-26T03:09:31.000Z,100
2023-01-26T03:11:34.000Z,100
2023-01-26T03:12:59.000Z,100
2023-01-26T03:15:02.000Z,100
2023-01-26T03:17:51.000Z,100
2023-01-26T03:19:16.000Z,100
2023-01-26T03:21:19.000Z,100
2023-01-26T03:22:44.000Z,100
2023-01-26T03:24:47.000Z,100
2023-01-26T03:26:12.000Z,100
2023-01-26T03:28:15.000Z,100
2023-01-26T03:29:39.000Z,100
2023-01-26T03:31:43.000Z,100
2023-01-26T03:33:07.000Z,100
2023-01-26T03:35:11.000Z,100
2023-01-26T03:36:35.000Z,100
2023-01-26T03:38:39.000Z,100
2023-01-26T03:40:03.000Z,100
2023-01-26T03:42:07.000Z,100
2023-01-26T03:43:31.000Z,99
2023-01-26T03:45:35.000Z,100
2023-01-26T03:46:59.000Z,100
2023-01-26T03:49:03.000Z,99
2023-01-26T03:50:27.000Z,99
2023-01-26T03:52:31.000Z,99
2023-01-26T03:55:20.000Z,99
2023-01-26T03:56:44.000Z,99
2023-01-26T03:58:48.000Z,98
2023-01-26T04:00:12.000Z,98
2023-01-26T04:02:16.000Z,99
2023-01-26T04:03:40.000Z,98
2023-01-26T04:05:44.000Z,98
2023-01-26T04:07:08.000Z,98
2023-01-26T04:09:12.000Z,98
2023-01-26T04:10:36.000Z,99
2023-01-26T04:12:39.000Z,98
2023-01-26T04:14:04.000Z,99
2023-01-26T04:16:07.000Z,100
2023-01-26T04:17:32.000Z,100
2023-01-26T04:19:35.000Z,100
2023-01-26T04:21:00.000Z,99
2023-01-26T04:23:03.000Z,98
2023-01-26T04:24:28.000Z,98
2023-01-26T04:26:31.000Z,99
2023-01-26T04:27:56.000Z,98
2023-01-26T04:29:59.000Z,99
2023-01-26T04:32:48.000Z,99
2023-01-26T04:34:13.000Z,98
2023-01-26T04:36:16.000Z,97
2023-01-26T04:37:41.000Z,97
2023-01-26T04:39:44.000Z,97
2023-01-26T04:41:09.000Z,97
2023-01-26T04:43:12.000Z,99
2023-01-26T04:44:36.000Z,100
2023-01-26T04:46:40.000Z,100
2023-01-26T04:48:04.000Z,100
2023-01-26T04:50:08.000Z,99
2023-01-26T04:51:32.000Z,98
2023-01-26T04:53:36.000Z,99
2023-01-26T04:55:00.000Z,99
2023-01-26T04:57:04.000Z,99
2023-01-26T04:58:28.000Z,99
2023-01-26T05:00:32.000Z,99
2023-01-26T05:01:56.000Z,98
2023-01-26T05:04:00.000Z,99
2023-01-26T05:05:24.000Z,99
2023-01-26T05:07:28.000Z,98
2023-01-26T05:10:17.000Z,98
2023-01-26T05:11:42.000Z,99
2023-01-26T05:13:45.000Z,99
2023-01-26T05:15:10.000Z,98
2023-01-26T05:17:13.000Z,98
2023-01-26T05:18:38.000Z,99
2023-01-26T05:20:41.000Z,98
2023-01-26T05:22:06.000Z,97
2023-01-26T05:24:09.000Z,97
2023-01-26T05:25:34.000Z,98
2023-01-26T05:27:37.000Z,98
2023-01-26T05:29:02.000Z,98
2023-01-26T05:31:05.000Z,98
2023-01-26T05:32:30.000Z,98
2023-01-26T05:34:33.000Z,98
2023-01-26T05:35:58.000Z,99
2023-01-26T05:38:01.000Z,99
2023-01-26T05:39:25.000Z,99
2023-01-26T05:41:29.000Z,97
2023-01-26T05:42:53.000Z,98
2023-01-26T05:44:57.000Z,98
2023-01-26T05:47:46.000Z,99
2023-01-26T05:49:11.000Z,98
2023-01-26T05:51:14.000Z,99
2023-01-26T05:52:39.000Z,99
2023-01-26T05:54:42.000Z,99
2023-01-26T05:56:06.000Z,99
2023-01-26T05:58:10.000Z,98
2023-01-26T05:59:34.000Z,98
2023-01-26T06:01:38.000Z,98
2023-01-26T06:03:02.000Z,98
2023-01-26T06:05:06.000Z,98
2023-01-26T06:06:30.000Z,98
2023-01-26T06:08:34.000Z,98
2023-01-26T06:09:58.000Z,99
2023-01-26T06:12:01.000Z,98
2023-01-26T06:13:26.000Z,97
2023-01-26T06:15:29.000Z,98
2023-01-26T06:16:54.000Z,99
2023-01-26T06:18:57.000Z,99
2023-01-26T06:20:22.000Z,99
2023-01-26T06:22:25.000Z,99
2023-01-26T06:25:14.000Z,100
2023-01-26T06:26:39.000Z,100
2023-01-26T06:28:42.000Z,100
2023-01-26T06:30:06.000Z,99
2023-01-26T06:32:10.000Z,98
2023-01-26T06:33:34.000Z,99
2023-01-26T06:35:38.000Z,98
2023-01-26T06:37:02.000Z,98
2023-01-26T06:39:06.000Z,97
2023-01-26T06:40:30.000Z,98
2023-01-26T06:42:34.000Z,99
2023-01-26T06:43:59.000Z,99
2023-01-26T06:46:02.000Z,99
2023-01-26T06:47:27.000Z,99
2023-01-26T06:49:30.000Z,99
2023-01-26T06:50:54.000Z,99
2023-01-26T06:52:58.000Z,98
2023-01-26T06:54:22.000Z,98
2023-01-26T06:56:26.000Z,98
2023-01-26T06:57:50.000Z,98
2023-01-26T06:59:54.000Z,98
2023-01-26T07:02:43.000Z,98
2023-01-26T07:04:07.000Z,99
2023-01-26T07:06:11.000Z,100
2023-01-26T07:07:35.000Z,100
2023-01-26T07:09:39.000Z,99
2023-01-26T07:11:03.000Z,98
2023-01-26T07:13:07.000Z,99
2023-01-26T07:14:31.000Z,99
2023-01-26T07:16:34.000Z,99
2023-01-26T07:17:59.000Z,99
2023-01-26T07:20:02.000Z,99
2023-01-26T07:21:27.000Z,100
2023-01-26T07:23:30.000Z,99
2023-01-26T07:24:55.000Z,99
2023-01-26T07:26:58.000Z,99
2023-01-26T07:28:23.000Z,99
2023-01-26T07:30:26.000Z,99
2023-01-26T07:31:51.000Z,99
2023-01-26T07:33:55.000Z,98
2023-01-26T07:35:19.000Z,97
2023-01-26T07:37:23.000Z,97
2023-01-26T07:40:12.000Z,98
2023-01-26T07:41:37.000Z,98
2023-01-26T07:43:40.000Z,98
2023-01-26T07:45:05.000Z,98
2023-01-26T07:47:08.000Z,98
2023-01-26T07:48:33.000Z,98
2023-01-26T07:50:36.000Z,98
2023-01-26T07:52:01.000Z,98
2023-01-26T07:54:07.000Z,98
2023-01-26T07:55:32.000Z,98
2023-01-26T07:57:35.000Z,99
2023-01-26T07:59:00.000Z,98
2023-01-26T08:01:07.000Z,98
2023-01-26T08:02:31.000Z,98
2023-01-26T08:04:35.000Z,99
2023-01-26T08:05:59.000Z,100
2023-01-26T08:08:03.000Z,100
2023-01-26T08:09:28.000Z,100
2023-01-26T08:11:31.000Z,99
2023-01-26T08:12:56.000Z,99
2023-01-26T08:14:59.000Z,99
2023-01-26T08:17:48.000Z,99
2023-01-26T08:19:13.000Z,98
2023-01-26T08:21:16.000Z,98
2023-01-26T08:22:41.000Z,98
2023-01-26T08:24:44.000Z,98
2023-01-26T08:26:09.000Z,97
2023-01-26T08:28:12.000Z,96
2023-01-26T08:29:37.000Z,96
2023-01-26T08:31:40.000Z,98
2023-01-26T08:33:04.000Z,99
2023-01-26T08:35:08.000Z,99
2023-01-26T08:36:32.000Z,99
2023-01-26T08:38:36.000Z,98
2023-01-26T08:40:00.000Z,98
2023-01-26T08:42:04.000Z,99
2023-01-26T08:43:28.000Z,98
2023-01-26T08:45:32.000Z,97
2023-01-26T08:46:56.000Z,98
2023-01-26T08:49:00.000Z,99
2023-01-26T08:50:24.000Z,99
2023-01-26T08:52:28.000Z,98
2023-01-26T08:55:17.000Z,98
2023-01-26T08:56:42.000Z,98
2023-01-26T08:58:45.000Z,98
2023-01-26T09:00:10.000Z,97
2023-01-26T09:02:14.000Z,97
2023-01-26T09:03:38.000Z,96
2023-01-26T09:05:42.000Z,98
2023-01-26T09:07:06.000Z,97
2023-01-26T09:09:09.000Z,97
2023-01-26T09:10:34.000Z,97
2023-01-26T09:12:37.000Z,97
2023-01-26T09:14:05.000Z,96
2023-01-26T09:16:08.000Z,96
2023-01-26T09:17:32.000Z,96
2023-01-26T09:19:36.000Z,96
2023-01-26T09:21:00.000Z,95
2023-01-26T09:23:04.000Z,96
2023-01-26T09:24:28.000Z,96
2023-01-26T09:26:32.000Z,96
2023-01-26T09:27:56.000Z,96
2023-01-26T09:30:00.000Z,96
2023-01-26T09:32:49.000Z,95
2023-01-26T09:34:14.000Z,94
2023-01-26T09:36:17.000Z,96
2023-01-26T09:37:41.000Z,97
2023-01-26T09:39:45.000Z,97
2023-01-26T09:41:09.000Z,97
2023-01-26T09:43:13.000Z,96
2023-01-26T09:44:37.000Z,96
2023-01-26T09:46:41.000Z,96
2023-01-26T09:48:05.000Z,96
2023-01-26T09:50:09.000Z,96
2023-01-26T09:51:33.000Z,96
2023-01-26T09:53:37.000Z,95
2023-01-26T09:55:01.000Z,95
2023-01-26T09:57:05.000Z,95
2023-01-26T09:58:29.000Z,95
2023-01-26T10:00:33.000Z,96
2023-01-26T10:01:57.000Z,96
2023-01-26T10:04:01.000Z,95
2023-01-26T10:05:25.000Z,95
2023-01-26T10:07:28.000Z,95
2023-01-26T10:10:18.000Z,94
2023-01-26T10:11:42.000Z,93
2023-01-26T10:13:46.000Z,94
2023-01-26T10:15:10.000Z,93
2023-01-26T10:17:14.000Z,92
2023-01-26T10:18:38.000Z,91
2023-01-26T10:20:42.000Z,94
2023-01-26T10:22:07.000Z,95
2023-01-26T10:24:10.000Z,91
2023-01-26T10:25:34.000Z,93
2023-01-26T10:27:38.000Z,92
2023-01-26T10:29:02.000Z,91
2023-01-26T10:33:03.000Z,92
2023-01-26T10:35:07.000Z,91
2023-01-26T10:36:31.000Z,92
2023-01-26T10:38:35.000Z,92
2023-01-26T10:39:59.000Z,91
2023-01-26T10:42:03.000Z,93
2023-01-26T10:43:27.000Z,93
2023-01-26T10:45:30.000Z,94
2023-01-26T10:48:20.000Z,93
2023-01-26T10:49:44.000Z,94
2023-01-26T10:51:48.000Z,92
2023-01-26T10:53:12.000Z,93
2023-01-26T10:55:15.000Z,92
2023-01-26T10:56:40.000Z,93
2023-01-26T10:58:43.000Z,92
2023-01-26T11:00:08.000Z,93
2023-01-26T11:02:11.000Z,93
2023-01-26T11:03:36.000Z,93
2023-01-26T11:05:39.000Z,92
2023-01-26T11:07:03.000Z,93
2023-01-26T11:09:07.000Z,92
2023-01-26T11:10:31.000Z,94
2023-01-26T11:12:35.000Z,93
2023-01-26T11:14:00.000Z,93
2023-01-26T11:16:03.000Z,93
2023-01-26T11:17:28.000Z,92
2023-01-26T11:19:31.000Z,92
2023-01-26T11:20:56.000Z,93
2023-01-26T11:22:59.000Z,93
2023-01-26T11:25:48.000Z,93
2023-01-26T11:27:13.000Z,92
2023-01-26T11:29:16.000Z,93
2023-01-26T11:30:41.000Z,93
2023-01-26T11:32:44.000Z,94
2023-01-26T11:34:09.000Z,93
2023-01-26T11:36:12.000Z,94
2023-01-26T11:37:36.000Z,93
2023-01-26T11:39:40.000Z,93
2023-01-26T11:41:04.000Z,92
2023-01-26T11:43:08.000Z,93
2023-01-26T11:44:32.000Z,93
2023-01-26T11:46:36.000Z,92
2023-01-26T11:48:00.000Z,93
2023-01-26T11:50:04.000Z,93
2023-01-26T11:51:28.000Z,93
2023-01-26T11:53:32.000Z,93
2023-01-26T11:54:56.000Z,93
2023-01-26T11:57:00.000Z,93
2023-01-26T11:58:24.000Z,91
2023-01-26T12:00:27.000Z,91
2023-01-26T12:03:19.000Z,93
2023-01-26T12:04:44.000Z,93
2023-01-26T12:06:47.000Z,92
2023-01-26T12:08:12.000Z,92
2023-01-26T12:10:15.000Z,92
2023-01-26T12:11:39.000Z,92
2023-01-26T12:13:43.000Z,93
2023-01-26T12:15:07.000Z,93
2023-01-26T12:17:11.000Z,93
2023-01-26T12:18:42.000Z,94
2023-01-26T12:21:05.000Z,92
2023-01-26T12:22:29.000Z,92
2023-01-26T12:24:33.000Z,92
2023-01-26T12:26:29.000Z,93
2023-01-26T12:28:32.000Z,94
2023-01-26T12:29:57.000Z,93
2023-01-26T12:32:00.000Z,93
2023-01-26T12:33:25.000Z,92
2023-01-26T12:35:28.000Z,92
2023-01-26T12:36:53.000Z,93
2023-01-26T12:38:56.000Z,94
2023-01-26T12:41:45.000Z,94
2023-01-26T12:43:10.000Z,93
2023-01-26T12:45:13.000Z,92
2023-01-26T12:46:40.000Z,92
2023-01-26T12:48:44.000Z,93
2023-01-26T12:50:08.000Z,94
2023-01-26T12:52:12.000Z,94
2023-01-26T12:53:36.000Z,94
2023-01-26T12:55:42.000Z,94
2023-01-26T12:57:06.000Z,94
2023-01-26T12:59:09.000Z,94
2023-01-26T13:00:35.000Z,93
2023-01-26T13:02:38.000Z,93
2023-01-26T13:04:03.000Z,93
2023-01-26T13:06:06.000Z,93
2023-01-26T13:07:31.000Z,94
2023-01-26T13:09:34.000Z,93
2023-01-26T13:10:59.000Z,94
2023-01-26T13:13:02.000Z,94
2023-01-26T13:14:27.000Z,94
2023-01-26T13:16:30.000Z,94
2023-01-26T13:19:19.000Z,94
2023-01-26T13:20:44.000Z,94
2023-01-26T13:22:47.000Z,94
2023-01-26T13:24:12.000Z,94
2023-01-26T13:26:15.000Z,95
2023-01-26T13:27:40.000Z,95
2023-01-26T13:29:43.000Z,96
2023-01-26T13:31:08.000Z,95
2023-01-26T13:33:11.000Z,95
2023-01-26T13:34:36.000Z,95
2023-01-26T13:36:39.000Z,96
2023-01-26T13:38:04.000Z,96
2023-01-26T13:40:07.000Z,97
2023-01-26T13:41:32.000Z,97
2023-01-26T13:43:35.000Z,97
2023-01-26T13:45:00.000Z,97
2023-01-26T13:47:03.000Z,97
2023-01-26T13:48:28.000Z,97
2023-01-26T13:50:31.000Z,97
2023-01-26T13:51:56.000Z,97
2023-01-26T13:53:59.000Z,98
2023-01-26T13:56:49.000Z,98
2023-01-26T13:58:13.000Z,98
2023-01-26T14:00:17.000Z,98
2023-01-26T14:01:41.000Z,98
2023-01-26T14:03:45.000Z,98
2023-01-26T14:05:09.000Z,98
2023-01-26T14:07:13.000Z,98
2023-01-26T14:08:37.000Z,98
2023-01-26T14:10:41.000Z,98
2023-01-26T14:12:05.000Z,99
2023-01-26T14:14:09.000Z,99
2023-01-26T14:15:33.000Z,99
2023-01-26T14:17:37.000Z,99
2023-01-26T14:19:01.000Z,99
2023-01-26T14:21:05.000Z,99
2023-01-26T14:22:29.000Z,99
2023-01-26T14:24:33.000Z,99
2023-01-26T14:25:57.000Z,99
2023-01-26T14:28:01.000Z,99
2023-01-26T14:29:25.000Z,99
2023-01-26T14:31:28.000Z,99
2023-01-26T14:34:18.000Z,100
2023-01-26T14:35:42.000Z,100
2023-01-26T14:37:46.000Z,100
2023-01-26T14:39:10.000Z,100
2023-01-26T14:41:14.000Z,100
2023-01-26T14:42:38.000Z,100
2023-01-26T14:44:41.000Z,100
2023-01-26T14:46:06.000Z,100
2023-01-26T14:48:09.000Z,100
2023-01-26T14:49:34.000Z,100
2023-01-26T14:51:37.000Z,100
2023-01-26T14:53:01.000Z,100
2023-01-26T14:55:05.000Z,100
2023-01-26T14:56:29.000Z,100
2023-01-26T14:58:33.000Z,100
2023-01-26T14:59:57.000Z,100
2023-01-26T15:02:01.000Z,100
2023-01-26T15:03:25.000Z,100
2023-01-26T15:05:29.000Z,100
2023-01-26T15:06:53.000Z,100
2023-01-26T15:08:57.000Z,100
2023-01-26T15:11:46.000Z,100
2023-01-26T15:13:10.000Z,100
2023-01-26T15:15:14.000Z,100
2023-01-26T15:16:38.000Z,100
2023-01-26T15:18:41.000Z,100
2023-01-26T15:20:06.000Z,100
2023-01-26T15:22:09.000Z,100
2023-01-26T15:23:34.000Z,100
2023-01-26T15:25:37.000Z,100
2023-01-26T15:27:02.000Z,100
2023-01-26T15:29:05.000Z,100
2023-01-26T15:30:29.000Z,100
2023-01-26T15:32:33.000Z,100
2023-01-26T15:33:58.000Z,100
2023-01-26T15:36:01.000Z,100
2023-01-26T15:37:26.000Z,100
2023-01-26T15:39:29.000Z,100
2023-01-26T15:40:53.000Z,100
2023-01-26T15:42:57.000Z,100
2023-01-26T15:44:21.000Z,100
2023-01-26T15:46:25.000Z,100
2023-01-26T15:49:14.000Z,100
2023-01-26T15:50:39.000Z,100
2023-01-26T15:52:42.000Z,100
2023-01-26T15:54:07.000Z,100
2023-01-26T15:56:10.000Z,100
2023-01-26T15:57:34.000Z,100
2023-01-26T15:59:38.000Z,100
2023-01-26T16:01:02.000Z,100
2023-01-26T16:03:06.000Z,100
2023-01-26T16:04:30.000Z,100
2023-01-26T16:06:33.000Z,100
2023-01-26T16:07:58.000Z,100
2023-01-26T16:10:01.000Z,100
2023-01-26T16:11:26.000Z,100
2023-01-26T16:13:29.000Z,100
2023-01-26T16:14:56.000Z,100
2023-01-26T16:18:32.000Z,100
2023-01-26T16:19:06.000Z,100
2023-01-26T16:20:30.000Z,100
2023-01-26T16:22:33.000Z,100
2023-01-26T16:23:58.000Z,100
2023-01-26T16:26:02.000Z,100
2023-01-26T16:28:45.000Z,100
2023-01-26T16:30:09.000Z,100
2023-01-26T16:32:13.000Z,100
2023-01-26T16:33:37.000Z,100
2023-01-26T16:35:41.000Z,100
2023-01-26T16:37:05.000Z,100
2023-01-26T16:39:09.000Z,100
2023-01-26T16:40:33.000Z,100
2023-01-26T16:42:36.000Z,100
2023-01-26T16:44:01.000Z,100
2023-01-26T16:46:04.000Z,100
2023-01-26T16:47:29.000Z,100
2023-01-26T16:49:32.000Z,100
2023-01-26T16:50:57.000Z,100
2023-01-26T16:53:00.000Z,100
2023-01-26T16:54:25.000Z,100
2023-01-26T16:56:28.000Z,100
2023-01-26T16:57:53.000Z,100
2023-01-26T16:59:56.000Z,100
2023-01-26T17:01:21.000Z,100
2023-01-26T17:03:24.000Z,100
2023-01-26T17:06:13.000Z,100
2023-01-26T17:07:38.000Z,100
2023-01-26T17:09:41.000Z,100
2023-01-26T17:11:05.000Z,100
2023-01-26T17:13:09.000Z,100
2023-01-26T17:14:33.000Z,100
2023-01-26T17:16:37.000Z,100
2023-01-26T17:18:02.000Z,100
2023-01-26T17:20:05.000Z,100
2023-01-26T17:21:43.000Z,100
2023-01-26T17:23:46.000Z,100
2023-01-26T17:25:11.000Z,100
2023-01-26T17:27:18.000Z,100
2023-01-26T17:28:43.000Z,100
2023-01-26T17:30:46.000Z,100
2023-01-26T17:32:11.000Z,100
2023-01-26T17:34:14.000Z,100
2023-01-26T17:35:39.000Z,100
2023-01-26T17:37:42.000Z,100
2023-01-26T17:39:07.000Z,100
2023-01-26T17:41:10.000Z,100
2023-01-26T17:43:59.000Z,100
2023-01-26T17:45:24.000Z,100
2023-01-26T17:47:27.000Z,100
2023-01-26T17:48:52.000Z,100
2023-01-26T17:50:55.000Z,100
2023-01-26T17:52:20.000Z,100
2023-01-26T17:54:23.000Z,100
2023-01-26T17:55:48.000Z,100
2023-01-26T17:57:51.000Z,100
2023-01-26T17:59:16.000Z,100
2023-01-26T18:01:19.000Z,100
2023-01-26T18:02:44.000Z,100
2023-01-26T18:04:47.000Z,100
2023-01-26T18:06:12.000Z,100
2023-01-26T18:08:15.000Z,100
2023-01-26T18:09:40.000Z,100
2023-01-26T18:11:43.000Z,100
2023-01-26T18:13:08.000Z,100
2023-01-26T18:15:11.000Z,100
2023-01-26T18:16:36.000Z,100
2023-01-26T18:18:40.000Z,100
2023-01-26T18:21:29.000Z,100
2023-01-26T18:22:53.000Z,100
2023-01-26T18:24:57.000Z,100
2023-01-26T18:26:21.000Z,100
2023-01-26T18:28:25.000Z,100
2023-01-26T18:29:49.000Z,100
2023-01-26T18:31:53.000Z,100
2023-01-26T18:33:17.000Z,100
2023-01-26T18:35:21.000Z,100
2023-01-26T18:36:45.000Z,100
2023-01-26T18:38:49.000Z,100
2023-01-26T18:40:13.000Z,100
2023-01-26T18:42:17.000Z,100
2023-01-26T18:43:41.000Z,100
2023-01-26T18:45:45.000Z,100
2023-01-26T18:47:09.000Z,100
2023-01-26T18:49:13.000Z,100
2023-01-26T18:50:37.000Z,100
2023-01-26T18:52:41.000Z,100
2023-01-26T18:54:05.000Z,100
2023-01-26T18:56:09.000Z,100
2023-01-26T18:58:58.000Z,100
2023-01-26T19:00:23.000Z,100
2023-01-26T19:02:26.000Z,100
2023-01-26T19:03:51.000Z,100
2023-01-26T19:05:54.000Z,100
2023-01-26T19:07:18.000Z,100
2023-01-26T19:09:22.000Z,100
2023-01-26T19:10:46.000Z,100
2023-01-26T19:12:50.000Z,100
2023-01-26T19:14:14.000Z,100
2023-01-26T19:16:18.000Z,100
2023-01-26T19:17:42.000Z,100
2023-01-26T19:19:46.000Z,100
2023-01-26T19:21:10.000Z,100
2023-01-26T19:23:13.000Z,100
2023-01-26T19:24:38.000Z,100
2023-01-26T19:26:41.000Z,100
2023-01-26T19:28:06.000Z,100
2023-01-26T19:30:09.000Z,100
2023-01-26T19:31:34.000Z,100
2023-01-26T19:33:37.000Z,100
2023-01-26T19:36:27.000Z,100
2023-01-26T19:37:51.000Z,100
2023-01-26T19:39:55.000Z,100
2023-01-26T19:41:19.000Z,100
2023-01-26T19:43:22.000Z,100
2023-01-26T19:44:47.000Z,100
2023-01-26T19:46:50.000Z,100
2023-01-26T19:48:15.000Z,100
2023-01-26T19:50:18.000Z,100
2023-01-26T19:51:43.000Z,100
2023-01-26T19:53:46.000Z,100
2023-01-26T19:55:11.000Z,100
2023-01-26T19:57:15.000Z,100
2023-01-26T19:58:39.000Z,100
2023-01-26T20:00:43.000Z,100
2023-01-26T20:02:07.000Z,100
2023-01-26T20:04:11.000Z,100
2023-01-26T20:05:35.000Z,100
2023-01-26T20:07:39.000Z,100
2023-01-26T20:09:03.000Z,100
2023-01-26T20:11:07.000Z,100
2023-01-26T20:13:56.000Z,100
2023-01-26T20:15:20.000Z,100
2023-01-26T20:17:24.000Z,100
2023-01-26T20:18:48.000Z,100
2023-01-26T20:20:52.000Z,100
2023-01-26T20:22:16.000Z,100
2023-01-26T20:24:20.000Z,100
2023-01-26T20:25:44.000Z,100
2023-01-26T20:27:48.000Z,100
2023-01-26T20:29:12.000Z,100
2023-01-26T20:31:15.000Z,100
2023-01-26T20:32:40.000Z,100
2023-01-26T20:34:43.000Z,100
2023-01-26T20:36:08.000Z,100
2023-01-26T20:38:11.000Z,100
2023-01-26T20:39:36.000Z,100
2023-01-26T20:41:39.000Z,100
2023-01-26T20:43:04.000Z,100
2023-01-26T20:45:07.000Z,100
2023-01-26T20:46:31.000Z,100
2023-01-26T20:48:35.000Z,100
2023-01-26T20:51:24.000Z,100
2023-01-26T20:52:48.000Z,100
2023-01-26T20:54:52.000Z,100
2023-01-26T20:56:16.000Z,100
2023-01-26T20:58:20.000Z,100
2023-01-26T20:59:44.000Z,100
2023-01-26T21:01:48.000Z,100
2023-01-26T21:03:12.000Z,100
2023-01-26T21:05:16.000Z,100
2023-01-26T21:06:40.000Z,100
2023-01-26T21:08:44.000Z,100
2023-01-26T21:10:08.000Z,100
2023-01-26T21:12:12.000Z,100
2023-01-26T21:13:36.000Z,100
2023-01-26T21:15:40.000Z,100
2023-01-26T21:17:04.000Z,100
2023-01-26T21:19:08.000Z,100
2023-01-26T21:20:32.000Z,100
2023-01-26T21:22:36.000Z,100
2023-01-26T21:24:00.000Z,100
2023-01-26T21:26:04.000Z,100
2023-01-26T21:28:53.000Z,100
2023-01-26T21:30:17.000Z,100
2023-01-26T21:32:21.000Z,100
2023-01-26T21:33:45.000Z,100
2023-01-26T21:35:49.000Z,100
2023-01-26T21:37:13.000Z,100
2023-01-26T21:39:16.000Z,100
2023-01-26T21:40:41.000Z,100
2023-01-26T21:42:44.000Z,100
2023-01-26T21:44:09.000Z,100
2023-01-26T21:46:12.000Z,100
2023-01-26T21:47:37.000Z,100
2023-01-26T21:49:40.000Z,100
2023-01-26T21:51:05.000Z,100
2023-01-26T21:53:08.000Z,100
2023-01-26T21:54:33.000Z,100
2023-01-26T21:56:36.000Z,100
2023-01-26T21:58:01.000Z,100
2023-01-26T22:00:04.000Z,100
2023-01-26T22:01:28.000Z,100
2023-01-26T22:03:32.000Z,100
2023-01-26T22:06:21.000Z,100
2023-01-26T22:07:46.000Z,100
2023-01-26T22:09:49.000Z,100
2023-01-26T22:11:13.000Z,100
2023-01-26T22:13:17.000Z,100
2023-01-26T22:14:41.000Z,100
2023-01-26T22:16:45.000Z,100
2023-01-26T22:18:09.000Z,100
2023-01-26T22:20:13.000Z,100
2023-01-26T22:21:38.000Z,100
2023-01-26T22:23:41.000Z,100
2023-01-26T22:25:06.000Z,100
2023-01-26T22:27:09.000Z,100
2023-01-26T22:28:34.000Z,100
2023-01-26T22:30:37.000Z,100
2023-01-26T22:32:02.000Z,100
2023-01-26T22:34:05.000Z,100
2023-01-26T22:35:30.000Z,100
2023-01-26T22:37:33.000Z,100
2023-01-26T22:38:58.000Z,100
2023-01-26T22:41:01.000Z,100
2023-01-26T22:43:50.000Z,100
2023-01-26T22:45:15.000Z,100
2023-01-26T22:47:18.000Z,100
2023-01-26T22:48:43.000Z,100
2023-01-26T22:50:46.000Z,100
2023-01-26T22:52:11.000Z,100
2023-01-26T22:54:14.000Z,100
2023-01-26T22:55:38.000Z,100
2023-01-26T22:57:42.000Z,100
2023-01-26T22:59:06.000Z,100
2023-01-26T23:01:10.000Z,100
2023-01-26T23:02:34.000Z,100
2023-01-26T23:04:38.000Z,100
2023-01-26T23:06:03.000Z,100
2023-01-26T23:08:06.000Z,100
2023-01-26T23:09:31.000Z,100
2023-01-26T23:11:34.000Z,100
2023-01-26T23:12:59.000Z,100
2023-01-26T23:15:02.000Z,100
2023-01-26T23:16:26.000Z,100
2023-01-26T23:18:30.000Z,100
2023-01-26T23:22:52.000Z,100
2023-01-26T23:23:26.000Z,100
2023-01-26T23:24:50.000Z,100
2023-01-26T23:26:53.000Z,100
2023-01-26T23:28:18.000Z,100
2023-01-26T23:30:21.000Z,100
2023-01-26T23:31:46.000Z,100
2023-01-26T23:33:49.000Z,100
2023-01-26T23:35:14.000Z,100
2023-01-26T23:37:17.000Z,100
2023-01-26T23:38:42.000Z,100
2023-01-26T23:40:45.000Z,100
2023-01-26T23:42:10.000Z,100
2023-01-26T23:44:13.000Z,100
2023-01-26T23:45:38.000Z,100
2023-01-26T23:47:41.000Z,100
2023-01-26T23:49:06.000Z,100
2023-01-26T23:51:09.000Z,100
2023-01-26T23:52:34.000Z,100
2023-01-26T23:54:37.000Z,100
2023-01-26T23:56:02.000Z,100
2023-01-26T23:58:05.000Z,100
